Attica, Indiana
Current Conditions -  °F | °C
As of 8:54 AM on Thursday 29 Jan 2015 (Local Time) from KLAF Reporting Station
Overcast Overcast  
Wind Chill: 35°   Ceiling: 2300
Heat Index: 41°   Visibility: 10mi
Dew Point: 34°   Wind: 9mph
Humidity: 76%   Direction: 240°WSW
Pressure: 29.74"   Gusts: NA
Location:  40.29°N, 87.25°W
Report Text: KLAF 291354Z 24008KT 10SM BKN023 OVC029 05/01 A2974 RMK AO2 SLP074 T00500011
Loading
Personal Weather Stations






























Interactive Weather Map New forecast layout! Learn more

10-Day Weather Forecast

Advertisements
Track Severe Weather on mobile